sensor_id;sensor_type;location;lat;lon;timestamp;P1;durP1;ratioP1;P2;durP2;ratioP2
45688;SDS011;31400;48.132;20.872;2024-02-14T00:00:57;35.35;;;18.63;;
45688;SDS011;31400;48.132;20.872;2024-02-14T00:03:23;38.72;;;18.55;;
45688;SDS011;31400;48.132;20.872;2024-02-14T00:05:49;40.63;;;20.40;;
45688;SDS011;31400;48.132;20.872;2024-02-14T00:08:17;46.28;;;23.08;;
45688;SDS011;31400;48.132;20.872;2024-02-14T00:10:43;53.22;;;28.95;;
45688;SDS011;31400;48.132;20.872;2024-02-14T00:13:10;48.90;;;24.70;;
45688;SDS011;31400;48.132;20.872;2024-02-14T00:15:36;48.38;;;24.05;;
45688;SDS011;31400;48.132;20.872;2024-02-14T00:18:02;52.67;;;28.50;;
45688;SDS011;31400;48.132;20.872;2024-02-14T00:20:28;40.45;;;23.42;;
45688;SDS011;31400;48.132;20.872;2024-02-14T00:22:54;39.63;;;22.70;;
45688;SDS011;31400;48.132;20.872;2024-02-14T00:25:20;38.47;;;20.52;;
45688;SDS011;31400;48.132;20.872;2024-02-14T00:27:46;40.80;;;23.80;;
45688;SDS011;31400;48.132;20.872;2024-02-14T00:30:12;36.78;;;21.15;;
45688;SDS011;31400;48.132;20.872;2024-02-14T00:32:38;40.70;;;20.15;;
45688;SDS011;31400;48.132;20.872;2024-02-14T00:35:05;38.85;;;19.35;;
45688;SDS011;31400;48.132;20.872;2024-02-14T00:37:31;33.35;;;17.58;;
45688;SDS011;31400;48.132;20.872;2024-02-14T00:39:58;30.40;;;17.60;;
45688;SDS011;31400;48.132;20.872;2024-02-14T00:42:24;37.40;;;17.63;;
45688;SDS011;31400;48.132;20.872;2024-02-14T00:44:50;28.25;;;15.85;;
45688;SDS011;31400;48.132;20.872;2024-02-14T00:47:16;25.15;;;15.38;;
45688;SDS011;31400;48.132;20.872;2024-02-14T00:49:42;27.38;;;15.95;;
45688;SDS011;31400;48.132;20.872;2024-02-14T00:52:08;31.33;;;16.35;;
45688;SDS011;31400;48.132;20.872;2024-02-14T00:54:34;27.17;;;15.40;;
45688;SDS011;31400;48.132;20.872;2024-02-14T00:57:00;30.67;;;16.38;;
45688;SDS011;31400;48.132;20.872;2024-02-14T00:59:27;27.33;;;15.00;;
45688;SDS011;31400;48.132;20.872;2024-02-14T01:01:53;21.10;;;13.07;;
45688;SDS011;31400;48.132;20.872;2024-02-14T01:04:19;26.40;;;14.13;;
45688;SDS011;31400;48.132;20.872;2024-02-14T01:06:45;28.77;;;14.13;;
45688;SDS011;31400;48.132;20.872;2024-02-14T01:09:11;28.80;;;15.82;;
45688;SDS011;31400;48.132;20.872;2024-02-14T01:11:37;25.30;;;14.75;;
45688;SDS011;31400;48.132;20.872;2024-02-14T01:14:03;31.20;;;15.98;;
45688;SDS011;31400;48.132;20.872;2024-02-14T01:16:29;24.58;;;15.07;;
45688;SDS011;31400;48.132;20.872;2024-02-14T01:18:55;28.80;;;14.38;;
45688;SDS011;31400;48.132;20.872;2024-02-14T01:21:21;28.52;;;13.25;;
45688;SDS011;31400;48.132;20.872;2024-02-14T01:23:47;16.83;;;11.70;;
45688;SDS011;31400;48.132;20.872;2024-02-14T01:26:13;21.20;;;12.55;;
45688;SDS011;31400;48.132;20.872;2024-02-14T01:28:39;24.02;;;14.05;;
45688;SDS011;31400;48.132;20.872;2024-02-14T01:31:05;21.55;;;12.73;;
45688;SDS011;31400;48.132;20.872;2024-02-14T01:33:31;18.00;;;12.65;;
45688;SDS011;31400;48.132;20.872;2024-02-14T01:38:24;26.40;;;13.32;;
45688;SDS011;31400;48.132;20.872;2024-02-14T01:40:50;26.50;;;15.30;;
45688;SDS011;31400;48.132;20.872;2024-02-14T01:43:16;28.08;;;13.95;;
45688;SDS011;31400;48.132;20.872;2024-02-14T01:45:42;32.80;;;14.02;;
45688;SDS011;31400;48.132;20.872;2024-02-14T01:48:08;26.50;;;13.90;;
45688;SDS011;31400;48.132;20.872;2024-02-14T01:53:01;21.65;;;13.40;;
45688;SDS011;31400;48.132;20.872;2024-02-14T01:55:27;20.38;;;13.05;;
45688;SDS011;31400;48.132;20.872;2024-02-14T01:57:53;25.13;;;13.63;;
45688;SDS011;31400;48.132;20.872;2024-02-14T02:00:19;25.05;;;14.02;;
45688;SDS011;31400;48.132;20.872;2024-02-14T02:02:46;23.08;;;13.18;;
45688;SDS011;31400;48.132;20.872;2024-02-14T02:05:12;23.95;;;14.40;;
45688;SDS011;31400;48.132;20.872;2024-02-14T02:10:07;25.30;;;12.88;;
45688;SDS011;31400;48.132;20.872;2024-02-14T02:12:34;22.80;;;12.55;;
45688;SDS011;31400;48.132;20.872;2024-02-14T02:15:03;23.42;;;15.45;;
45688;SDS011;31400;48.132;20.872;2024-02-14T02:17:29;22.02;;;13.70;;
45688;SDS011;31400;48.132;20.872;2024-02-14T02:19:56;29.90;;;14.85;;
45688;SDS011;31400;48.132;20.872;2024-02-14T02:22:22;20.73;;;13.70;;
45688;SDS011;31400;48.132;20.872;2024-02-14T02:27:15;27.13;;;15.85;;
45688;SDS011;31400;48.132;20.872;2024-02-14T02:32:08;21.05;;;13.18;;
45688;SDS011;31400;48.132;20.872;2024-02-14T02:34:34;26.17;;;15.20;;
45688;SDS011;31400;48.132;20.872;2024-02-14T02:37:04;22.08;;;13.48;;
45688;SDS011;31400;48.132;20.872;2024-02-14T02:39:32;25.70;;;13.70;;
45688;SDS011;31400;48.132;20.872;2024-02-14T02:41:58;17.92;;;12.15;;
45688;SDS011;31400;48.132;20.872;2024-02-14T02:44:25;24.20;;;12.45;;
45688;SDS011;31400;48.132;20.872;2024-02-14T02:46:51;24.88;;;13.57;;
45688;SDS011;31400;48.132;20.872;2024-02-14T02:49:17;23.02;;;13.18;;
45688;SDS011;31400;48.132;20.872;2024-02-14T02:51:43;22.80;;;12.02;;
45688;SDS011;31400;48.132;20.872;2024-02-14T02:54:09;24.17;;;13.95;;
45688;SDS011;31400;48.132;20.872;2024-02-14T02:56:36;25.58;;;13.70;;
45688;SDS011;31400;48.132;20.872;2024-02-14T02:59:02;17.60;;;12.50;;
45688;SDS011;31400;48.132;20.872;2024-02-14T03:01:34;30.33;;;14.07;;
45688;SDS011;31400;48.132;20.872;2024-02-14T03:04:00;24.75;;;13.45;;
45688;SDS011;31400;48.132;20.872;2024-02-14T03:06:27;21.40;;;13.25;;
45688;SDS011;31400;48.132;20.872;2024-02-14T03:08:53;18.85;;;13.38;;
45688;SDS011;31400;48.132;20.872;2024-02-14T03:11:20;18.85;;;12.98;;
45688;SDS011;31400;48.132;20.872;2024-02-14T03:13:46;26.02;;;13.93;;
45688;SDS011;31400;48.132;20.872;2024-02-14T03:16:14;22.48;;;14.15;;
45688;SDS011;31400;48.132;20.872;2024-02-14T03:18:40;27.60;;;13.45;;
45688;SDS011;31400;48.132;20.872;2024-02-14T03:21:06;30.10;;;14.77;;
45688;SDS011;31400;48.132;20.872;2024-02-14T03:23:32;23.05;;;13.93;;
45688;SDS011;31400;48.132;20.872;2024-02-14T03:26:01;27.33;;;14.30;;
45688;SDS011;31400;48.132;20.872;2024-02-14T03:28:32;22.20;;;14.15;;
45688;SDS011;31400;48.132;20.872;2024-02-14T03:30:58;26.20;;;13.98;;
45688;SDS011;31400;48.132;20.872;2024-02-14T03:33:24;20.20;;;13.20;;
45688;SDS011;31400;48.132;20.872;2024-02-14T03:35:50;25.75;;;13.90;;
45688;SDS011;31400;48.132;20.872;2024-02-14T03:38:25;26.25;;;14.38;;
45688;SDS011;31400;48.132;20.872;2024-02-14T03:40:52;25.00;;;13.57;;
45688;SDS011;31400;48.132;20.872;2024-02-14T03:43:18;21.70;;;14.25;;
45688;SDS011;31400;48.132;20.872;2024-02-14T03:45:44;23.27;;;14.32;;
45688;SDS011;31400;48.132;20.872;2024-02-14T03:48:11;21.75;;;13.43;;
45688;SDS011;31400;48.132;20.872;2024-02-14T03:50:40;26.40;;;14.18;;
45688;SDS011;31400;48.132;20.872;2024-02-14T03:53:08;23.85;;;12.35;;
45688;SDS011;31400;48.132;20.872;2024-02-14T03:55:36;22.10;;;13.15;;
45688;SDS011;31400;48.132;20.872;2024-02-14T03:58:02;26.88;;;13.43;;
45688;SDS011;31400;48.132;20.872;2024-02-14T04:00:29;20.33;;;12.73;;
45688;SDS011;31400;48.132;20.872;2024-02-14T04:02:56;27.35;;;14.45;;
45688;SDS011;31400;48.132;20.872;2024-02-14T04:05:24;25.55;;;13.63;;
45688;SDS011;31400;48.132;20.872;2024-02-14T04:07:52;21.95;;;14.32;;
45688;SDS011;31400;48.132;20.872;2024-02-14T04:10:19;21.88;;;14.13;;
45688;SDS011;31400;48.132;20.872;2024-02-14T04:12:45;25.25;;;13.18;;
45688;SDS011;31400;48.132;20.872;2024-02-14T04:15:11;24.40;;;13.68;;
45688;SDS011;31400;48.132;20.872;2024-02-14T04:17:38;34.88;;;13.95;;
45688;SDS011;31400;48.132;20.872;2024-02-14T04:20:04;20.65;;;13.00;;
45688;SDS011;31400;48.132;20.872;2024-02-14T04:22:30;20.80;;;12.90;;
45688;SDS011;31400;48.132;20.872;2024-02-14T04:24:56;20.23;;;13.00;;
45688;SDS011;31400;48.132;20.872;2024-02-14T04:27:22;20.42;;;11.77;;
45688;SDS011;31400;48.132;20.872;2024-02-14T04:29:48;20.10;;;11.38;;
45688;SDS011;31400;48.132;20.872;2024-02-14T04:32:14;22.15;;;13.27;;
45688;SDS011;31400;48.132;20.872;2024-02-14T04:34:40;20.15;;;12.10;;
45688;SDS011;31400;48.132;20.872;2024-02-14T04:37:08;22.25;;;11.82;;
45688;SDS011;31400;48.132;20.872;2024-02-14T04:39:39;18.92;;;12.98;;
45688;SDS011;31400;48.132;20.872;2024-02-14T04:42:05;19.52;;;13.07;;
45688;SDS011;31400;48.132;20.872;2024-02-14T04:47:34;37.25;;;20.13;;
45688;SDS011;31400;48.132;20.872;2024-02-14T04:50:00;37.40;;;20.38;;
45688;SDS011;31400;48.132;20.872;2024-02-14T04:52:29;23.88;;;17.00;;
45688;SDS011;31400;48.132;20.872;2024-02-14T04:54:55;24.75;;;14.60;;
45688;SDS011;31400;48.132;20.872;2024-02-14T04:59:47;19.75;;;11.43;;
45688;SDS011;31400;48.132;20.872;2024-02-14T05:02:13;24.75;;;13.65;;
45688;SDS011;31400;48.132;20.872;2024-02-14T05:04:39;25.27;;;15.73;;
45688;SDS011;31400;48.132;20.872;2024-02-14T05:07:05;41.63;;;19.90;;
45688;SDS011;31400;48.132;20.872;2024-02-14T05:09:32;37.42;;;22.00;;
45688;SDS011;31400;48.132;20.872;2024-02-14T05:11:58;39.80;;;19.08;;
45688;SDS011;31400;48.132;20.872;2024-02-14T05:14:25;35.92;;;17.42;;
45688;SDS011;31400;48.132;20.872;2024-02-14T05:16:55;26.05;;;13.90;;
45688;SDS011;31400;48.132;20.872;2024-02-14T05:19:21;29.38;;;13.60;;
45688;SDS011;31400;48.132;20.872;2024-02-14T05:21:47;25.05;;;12.68;;
45688;SDS011;31400;48.132;20.872;2024-02-14T05:24:13;21.42;;;13.88;;
45688;SDS011;31400;48.132;20.872;2024-02-14T05:29:05;29.35;;;15.25;;
45688;SDS011;31400;48.132;20.872;2024-02-14T05:31:44;21.70;;;13.63;;
45688;SDS011;31400;48.132;20.872;2024-02-14T05:34:10;18.48;;;11.32;;
45688;SDS011;31400;48.132;20.872;2024-02-14T05:36:36;32.03;;;12.18;;
45688;SDS011;31400;48.132;20.872;2024-02-14T05:39:03;21.00;;;11.95;;
45688;SDS011;31400;48.132;20.872;2024-02-14T05:41:30;24.88;;;13.63;;
45688;SDS011;31400;48.132;20.872;2024-02-14T05:43:58;24.35;;;13.18;;
45688;SDS011;31400;48.132;20.872;2024-02-14T05:46:24;24.48;;;13.43;;
45688;SDS011;31400;48.132;20.872;2024-02-14T05:48:50;27.73;;;15.13;;
45688;SDS011;31400;48.132;20.872;2024-02-14T05:51:17;19.55;;;14.02;;
45688;SDS011;31400;48.132;20.872;2024-02-14T05:53:44;23.55;;;14.25;;
45688;SDS011;31400;48.132;20.872;2024-02-14T05:56:10;32.28;;;13.30;;
45688;SDS011;31400;48.132;20.872;2024-02-14T05:58:36;23.83;;;13.50;;
45688;SDS011;31400;48.132;20.872;2024-02-14T06:01:02;24.35;;;14.93;;
45688;SDS011;31400;48.132;20.872;2024-02-14T06:03:28;27.38;;;15.77;;
45688;SDS011;31400;48.132;20.872;2024-02-14T06:05:54;21.52;;;12.95;;
45688;SDS011;31400;48.132;20.872;2024-02-14T06:08:20;24.60;;;14.75;;
45688;SDS011;31400;48.132;20.872;2024-02-14T06:10:48;25.83;;;14.75;;
45688;SDS011;31400;48.132;20.872;2024-02-14T06:13:14;27.85;;;14.90;;
45688;SDS011;31400;48.132;20.872;2024-02-14T06:15:40;25.83;;;14.48;;
45688;SDS011;31400;48.132;20.872;2024-02-14T06:18:06;19.83;;;11.07;;
45688;SDS011;31400;48.132;20.872;2024-02-14T06:20:32;18.30;;;10.13;;
45688;SDS011;31400;48.132;20.872;2024-02-14T06:22:58;17.77;;;10.48;;
45688;SDS011;31400;48.132;20.872;2024-02-14T06:25:24;19.25;;;11.65;;
45688;SDS011;31400;48.132;20.872;2024-02-14T06:27:50;28.58;;;10.23;;
45688;SDS011;31400;48.132;20.872;2024-02-14T06:30:16;14.25;;;9.52;;
45688;SDS011;31400;48.132;20.872;2024-02-14T06:32:42;13.60;;;9.30;;
45688;SDS011;31400;48.132;20.872;2024-02-14T06:35:08;18.45;;;8.77;;
45688;SDS011;31400;48.132;20.872;2024-02-14T06:37:34;14.80;;;9.10;;
45688;SDS011;31400;48.132;20.872;2024-02-14T06:40:00;18.17;;;9.80;;
45688;SDS011;31400;48.132;20.872;2024-02-14T06:42:26;12.27;;;8.88;;
45688;SDS011;31400;48.132;20.872;2024-02-14T06:44:52;14.90;;;9.70;;
45688;SDS011;31400;48.132;20.872;2024-02-14T06:47:18;21.75;;;10.35;;
45688;SDS011;31400;48.132;20.872;2024-02-14T06:49:44;17.63;;;9.05;;
45688;SDS011;31400;48.132;20.872;2024-02-14T06:52:10;16.15;;;10.23;;
45688;SDS011;31400;48.132;20.872;2024-02-14T06:54:36;17.23;;;10.52;;
45688;SDS011;31400;48.132;20.872;2024-02-14T06:57:02;13.65;;;9.40;;
45688;SDS011;31400;48.132;20.872;2024-02-14T06:59:28;16.05;;;10.02;;
45688;SDS011;31400;48.132;20.872;2024-02-14T07:01:54;13.15;;;8.45;;
45688;SDS011;31400;48.132;20.872;2024-02-14T07:04:21;15.45;;;8.98;;
45688;SDS011;31400;48.132;20.872;2024-02-14T07:06:51;16.38;;;9.32;;
45688;SDS011;31400;48.132;20.872;2024-02-14T07:09:17;15.27;;;8.95;;
45688;SDS011;31400;48.132;20.872;2024-02-14T07:11:43;14.82;;;8.07;;
45688;SDS011;31400;48.132;20.872;2024-02-14T07:14:10;12.10;;;8.55;;
45688;SDS011;31400;48.132;20.872;2024-02-14T07:16:36;14.90;;;9.73;;
45688;SDS011;31400;48.132;20.872;2024-02-14T07:19:03;13.93;;;7.72;;
45688;SDS011;31400;48.132;20.872;2024-02-14T07:21:29;14.57;;;8.05;;
45688;SDS011;31400;48.132;20.872;2024-02-14T07:26:21;14.75;;;7.75;;
45688;SDS011;31400;48.132;20.872;2024-02-14T07:28:47;13.82;;;8.20;;
45688;SDS011;31400;48.132;20.872;2024-02-14T07:31:13;19.77;;;9.15;;
45688;SDS011;31400;48.132;20.872;2024-02-14T07:33:39;15.15;;;8.32;;
45688;SDS011;31400;48.132;20.872;2024-02-14T07:36:05;14.40;;;7.20;;
45688;SDS011;31400;48.132;20.872;2024-02-14T07:38:31;15.65;;;8.15;;
45688;SDS011;31400;48.132;20.872;2024-02-14T07:43:23;10.65;;;6.63;;
45688;SDS011;31400;48.132;20.872;2024-02-14T07:48:15;26.13;;;16.98;;
45688;SDS011;31400;48.132;20.872;2024-02-14T07:53:07;33.53;;;23.58;;
45688;SDS011;31400;48.132;20.872;2024-02-14T07:57:59;35.75;;;21.75;;
45688;SDS011;31400;48.132;20.872;2024-02-14T08:00:25;49.20;;;32.28;;
45688;SDS011;31400;48.132;20.872;2024-02-14T08:02:52;28.67;;;15.85;;
45688;SDS011;31400;48.132;20.872;2024-02-14T08:07:44;16.05;;;10.27;;
45688;SDS011;31400;48.132;20.872;2024-02-14T08:10:11;11.80;;;8.70;;
45688;SDS011;31400;48.132;20.872;2024-02-14T08:15:03;14.38;;;9.73;;
45688;SDS011;31400;48.132;20.872;2024-02-14T08:17:31;19.42;;;12.82;;
45688;SDS011;31400;48.132;20.872;2024-02-14T08:19:58;14.82;;;11.00;;
45688;SDS011;31400;48.132;20.872;2024-02-14T08:22:25;14.13;;;9.20;;
45688;SDS011;31400;48.132;20.872;2024-02-14T08:24:52;18.17;;;11.10;;
45688;SDS011;31400;48.132;20.872;2024-02-14T08:27:18;15.57;;;10.20;;
45688;SDS011;31400;48.132;20.872;2024-02-14T08:29:44;11.10;;;6.80;;
45688;SDS011;31400;48.132;20.872;2024-02-14T08:32:10;10.15;;;7.30;;
45688;SDS011;31400;48.132;20.872;2024-02-14T08:34:36;9.77;;;7.22;;
45688;SDS011;31400;48.132;20.872;2024-02-14T08:37:02;14.32;;;8.02;;
45688;SDS011;31400;48.132;20.872;2024-02-14T08:39:28;15.00;;;8.35;;
45688;SDS011;31400;48.132;20.872;2024-02-14T08:41:54;12.30;;;8.20;;
45688;SDS011;31400;48.132;20.872;2024-02-14T08:44:20;11.35;;;6.13;;
45688;SDS011;31400;48.132;20.872;2024-02-14T08:46:46;11.02;;;6.22;;
45688;SDS011;31400;48.132;20.872;2024-02-14T08:49:14;11.65;;;6.35;;
45688;SDS011;31400;48.132;20.872;2024-02-14T08:51:40;11.43;;;8.20;;
45688;SDS011;31400;48.132;20.872;2024-02-14T08:54:09;13.40;;;7.53;;
45688;SDS011;31400;48.132;20.872;2024-02-14T08:56:35;10.52;;;7.85;;
45688;SDS011;31400;48.132;20.872;2024-02-14T08:59:02;12.18;;;7.70;;
45688;SDS011;31400;48.132;20.872;2024-02-14T09:01:29;12.25;;;7.45;;
45688;SDS011;31400;48.132;20.872;2024-02-14T09:03:55;13.25;;;7.97;;
45688;SDS011;31400;48.132;20.872;2024-02-14T09:06:21;13.57;;;8.57;;
45688;SDS011;31400;48.132;20.872;2024-02-14T09:08:47;15.50;;;8.02;;
45688;SDS011;31400;48.132;20.872;2024-02-14T09:11:15;12.45;;;6.85;;
45688;SDS011;31400;48.132;20.872;2024-02-14T09:13:41;8.57;;;5.20;;
45688;SDS011;31400;48.132;20.872;2024-02-14T09:16:08;8.23;;;5.78;;
45688;SDS011;31400;48.132;20.872;2024-02-14T09:18:34;7.75;;;5.75;;
45688;SDS011;31400;48.132;20.872;2024-02-14T09:21:00;5.70;;;3.72;;
45688;SDS011;31400;48.132;20.872;2024-02-14T09:23:30;5.50;;;4.20;;
45688;SDS011;31400;48.132;20.872;2024-02-14T09:25:56;5.70;;;4.28;;
45688;SDS011;31400;48.132;20.872;2024-02-14T09:28:22;8.55;;;4.47;;
45688;SDS011;31400;48.132;20.872;2024-02-14T09:30:48;6.78;;;3.75;;
45688;SDS011;31400;48.132;20.872;2024-02-14T09:33:14;7.18;;;3.50;;
45688;SDS011;31400;48.132;20.872;2024-02-14T09:35:41;9.98;;;4.05;;
45688;SDS011;31400;48.132;20.872;2024-02-14T09:38:12;4.70;;;3.47;;
45688;SDS011;31400;48.132;20.872;2024-02-14T09:40:40;4.78;;;3.20;;
45688;SDS011;31400;48.132;20.872;2024-02-14T09:43:08;8.68;;;3.63;;
45688;SDS011;31400;48.132;20.872;2024-02-14T09:45:37;5.32;;;3.05;;
45688;SDS011;31400;48.132;20.872;2024-02-14T09:48:05;5.35;;;4.05;;
45688;SDS011;31400;48.132;20.872;2024-02-14T09:50:32;6.38;;;3.88;;
45688;SDS011;31400;48.132;20.872;2024-02-14T09:52:59;6.53;;;4.15;;
45688;SDS011;31400;48.132;20.872;2024-02-14T09:55:26;4.80;;;3.17;;
45688;SDS011;31400;48.132;20.872;2024-02-14T09:57:52;5.30;;;3.38;;
45688;SDS011;31400;48.132;20.872;2024-02-14T10:00:18;11.70;;;4.45;;
45688;SDS011;31400;48.132;20.872;2024-02-14T10:02:44;4.32;;;2.45;;
45688;SDS011;31400;48.132;20.872;2024-02-14T10:05:10;8.73;;;2.72;;
45688;SDS011;31400;48.132;20.872;2024-02-14T10:07:40;5.75;;;2.95;;
45688;SDS011;31400;48.132;20.872;2024-02-14T10:10:07;7.18;;;2.95;;
45688;SDS011;31400;48.132;20.872;2024-02-14T10:12:33;6.80;;;2.60;;
45688;SDS011;31400;48.132;20.872;2024-02-14T10:14:59;5.15;;;3.13;;
45688;SDS011;31400;48.132;20.872;2024-02-14T10:17:27;8.32;;;3.40;;
45688;SDS011;31400;48.132;20.872;2024-02-14T10:19:59;3.30;;;2.28;;
45688;SDS011;31400;48.132;20.872;2024-02-14T10:22:27;5.22;;;2.70;;
45688;SDS011;31400;48.132;20.872;2024-02-14T10:24:57;5.90;;;2.90;;
45688;SDS011;31400;48.132;20.872;2024-02-14T10:27:25;4.70;;;2.75;;
45688;SDS011;31400;48.132;20.872;2024-02-14T10:29:51;3.80;;;2.15;;
45688;SDS011;31400;48.132;20.872;2024-02-14T10:32:17;3.70;;;2.20;;
45688;SDS011;31400;48.132;20.872;2024-02-14T10:34:43;3.90;;;2.20;;
45688;SDS011;31400;48.132;20.872;2024-02-14T10:37:13;4.78;;;2.38;;
45688;SDS011;31400;48.132;20.872;2024-02-14T10:39:41;3.45;;;1.88;;
45688;SDS011;31400;48.132;20.872;2024-02-14T10:42:07;5.55;;;2.10;;
45688;SDS011;31400;48.132;20.872;2024-02-14T10:44:34;4.55;;;2.03;;
45688;SDS011;31400;48.132;20.872;2024-02-14T10:47:00;5.05;;;2.40;;
45688;SDS011;31400;48.132;20.872;2024-02-14T10:49:28;8.52;;;4.40;;
45688;SDS011;31400;48.132;20.872;2024-02-14T10:51:54;3.67;;;2.45;;
45688;SDS011;31400;48.132;20.872;2024-02-14T10:54:22;4.13;;;2.40;;
45688;SDS011;31400;48.132;20.872;2024-02-14T10:56:49;2.90;;;1.88;;
45688;SDS011;31400;48.132;20.872;2024-02-14T10:59:17;2.65;;;1.60;;
45688;SDS011;31400;48.132;20.872;2024-02-14T11:01:44;3.10;;;2.05;;
45688;SDS011;31400;48.132;20.872;2024-02-14T11:04:11;3.15;;;1.88;;
45688;SDS011;31400;48.132;20.872;2024-02-14T11:06:44;3.70;;;1.80;;
45688;SDS011;31400;48.132;20.872;2024-02-14T11:09:11;3.83;;;2.28;;
45688;SDS011;31400;48.132;20.872;2024-02-14T11:11:40;3.95;;;2.55;;
45688;SDS011;31400;48.132;20.872;2024-02-14T11:14:06;3.70;;;2.08;;
45688;SDS011;31400;48.132;20.872;2024-02-14T11:16:32;6.85;;;2.05;;
45688;SDS011;31400;48.132;20.872;2024-02-14T11:19:11;4.13;;;1.80;;
45688;SDS011;31400;48.132;20.872;2024-02-14T11:21:46;3.88;;;1.83;;
45688;SDS011;31400;48.132;20.872;2024-02-14T11:24:14;2.72;;;1.60;;
45688;SDS011;31400;48.132;20.872;2024-02-14T11:29:15;5.15;;;2.10;;
45688;SDS011;31400;48.132;20.872;2024-02-14T11:31:41;4.03;;;1.63;;
45688;SDS011;31400;48.132;20.872;2024-02-14T11:34:08;4.05;;;2.03;;
45688;SDS011;31400;48.132;20.872;2024-02-14T11:36:35;4.53;;;1.90;;
45688;SDS011;31400;48.132;20.872;2024-02-14T11:39:02;11.63;;;1.83;;
45688;SDS011;31400;48.132;20.872;2024-02-14T11:41:30;9.80;;;1.83;;
45688;SDS011;31400;48.132;20.872;2024-02-14T11:43:56;3.47;;;1.50;;
45688;SDS011;31400;48.132;20.872;2024-02-14T11:46:27;2.30;;;1.50;;
45688;SDS011;31400;48.132;20.872;2024-02-14T11:48:54;3.63;;;1.27;;
45688;SDS011;31400;48.132;20.872;2024-02-14T11:51:22;4.38;;;2.33;;
45688;SDS011;31400;48.132;20.872;2024-02-14T11:53:48;3.85;;;2.47;;
45688;SDS011;31400;48.132;20.872;2024-02-14T11:56:14;8.43;;;1.98;;
45688;SDS011;31400;48.132;20.872;2024-02-14T11:58:40;3.83;;;2.28;;
45688;SDS011;31400;48.132;20.872;2024-02-14T12:01:06;7.95;;;4.85;;
45688;SDS011;31400;48.132;20.872;2024-02-14T12:03:34;7.85;;;3.35;;
45688;SDS011;31400;48.132;20.872;2024-02-14T12:06:00;4.22;;;2.30;;
45688;SDS011;31400;48.132;20.872;2024-02-14T12:08:28;3.80;;;2.08;;
45688;SDS011;31400;48.132;20.872;2024-02-14T12:10:54;4.25;;;2.40;;
45688;SDS011;31400;48.132;20.872;2024-02-14T12:13:20;2.72;;;1.70;;
45688;SDS011;31400;48.132;20.872;2024-02-14T12:15:47;2.97;;;1.80;;
45688;SDS011;31400;48.132;20.872;2024-02-14T12:18:16;3.00;;;1.80;;
45688;SDS011;31400;48.132;20.872;2024-02-14T12:20:46;4.72;;;2.33;;
45688;SDS011;31400;48.132;20.872;2024-02-14T12:23:17;4.32;;;2.30;;
45688;SDS011;31400;48.132;20.872;2024-02-14T12:25:44;4.22;;;2.15;;
45688;SDS011;31400;48.132;20.872;2024-02-14T12:28:17;3.80;;;1.88;;
45688;SDS011;31400;48.132;20.872;2024-02-14T12:30:47;3.75;;;2.03;;
45688;SDS011;31400;48.132;20.872;2024-02-14T12:33:15;4.72;;;2.47;;
45688;SDS011;31400;48.132;20.872;2024-02-14T12:35:44;5.35;;;2.20;;
45688;SDS011;31400;48.132;20.872;2024-02-14T12:38:11;8.85;;;3.15;;
45688;SDS011;31400;48.132;20.872;2024-02-14T12:40:38;4.25;;;2.50;;
45688;SDS011;31400;48.132;20.872;2024-02-14T12:43:06;3.95;;;2.53;;
45688;SDS011;31400;48.132;20.872;2024-02-14T12:45:32;4.20;;;2.35;;
45688;SDS011;31400;48.132;20.872;2024-02-14T12:47:58;3.25;;;2.20;;
45688;SDS011;31400;48.132;20.872;2024-02-14T12:50:25;6.00;;;2.50;;
45688;SDS011;31400;48.132;20.872;2024-02-14T12:52:51;3.00;;;2.03;;
45688;SDS011;31400;48.132;20.872;2024-02-14T12:55:17;5.82;;;2.35;;
45688;SDS011;31400;48.132;20.872;2024-02-14T12:57:44;3.90;;;2.17;;
45688;SDS011;31400;48.132;20.872;2024-02-14T13:00:10;2.75;;;1.63;;
45688;SDS011;31400;48.132;20.872;2024-02-14T13:02:36;6.53;;;2.40;;
45688;SDS011;31400;48.132;20.872;2024-02-14T13:05:05;4.22;;;2.53;;
45688;SDS011;31400;48.132;20.872;2024-02-14T13:07:32;3.20;;;2.08;;
45688;SDS011;31400;48.132;20.872;2024-02-14T13:09:58;5.82;;;2.10;;
45688;SDS011;31400;48.132;20.872;2024-02-14T13:14:49;3.17;;;2.17;;
45688;SDS011;31400;48.132;20.872;2024-02-14T13:19:41;3.83;;;2.17;;
45688;SDS011;31400;48.132;20.872;2024-02-14T13:22:08;4.15;;;2.30;;
45688;SDS011;31400;48.132;20.872;2024-02-14T13:24:34;2.83;;;1.83;;
45688;SDS011;31400;48.132;20.872;2024-02-14T13:29:26;5.70;;;1.98;;
45688;SDS011;31400;48.132;20.872;2024-02-14T13:31:53;3.97;;;2.05;;
45688;SDS011;31400;48.132;20.872;2024-02-14T13:36:48;3.20;;;2.05;;
45688;SDS011;31400;48.132;20.872;2024-02-14T13:39:14;8.02;;;2.75;;
45688;SDS011;31400;48.132;20.872;2024-02-14T13:44:08;3.78;;;2.13;;
45688;SDS011;31400;48.132;20.872;2024-02-14T13:46:34;5.63;;;2.42;;
45688;SDS011;31400;48.132;20.872;2024-02-14T13:51:26;3.60;;;2.22;;
45688;SDS011;31400;48.132;20.872;2024-02-14T13:53:53;5.30;;;2.08;;
45688;SDS011;31400;48.132;20.872;2024-02-14T13:56:19;3.95;;;2.13;;
45688;SDS011;31400;48.132;20.872;2024-02-14T13:58:49;3.78;;;2.13;;
45688;SDS011;31400;48.132;20.872;2024-02-14T14:01:15;4.15;;;1.85;;
45688;SDS011;31400;48.132;20.872;2024-02-14T14:03:42;3.92;;;2.00;;
45688;SDS011;31400;48.132;20.872;2024-02-14T14:06:08;5.70;;;2.08;;
45688;SDS011;31400;48.132;20.872;2024-02-14T14:08:34;5.05;;;2.50;;
45688;SDS011;31400;48.132;20.872;2024-02-14T14:13:26;3.20;;;2.00;;
45688;SDS011;31400;48.132;20.872;2024-02-14T14:15:55;3.10;;;1.80;;
45688;SDS011;31400;48.132;20.872;2024-02-14T14:18:22;5.90;;;1.90;;
45688;SDS011;31400;48.132;20.872;2024-02-14T14:20:48;6.78;;;2.33;;
45688;SDS011;31400;48.132;20.872;2024-02-14T14:25:41;5.13;;;2.90;;
45688;SDS011;31400;48.132;20.872;2024-02-14T14:30:34;3.47;;;1.63;;
45688;SDS011;31400;48.132;20.872;2024-02-14T14:35:26;6.07;;;1.88;;
45688;SDS011;31400;48.132;20.872;2024-02-14T14:37:53;7.65;;;2.30;;
45688;SDS011;31400;48.132;20.872;2024-02-14T14:40:20;4.43;;;2.22;;
45688;SDS011;31400;48.132;20.872;2024-02-14T14:42:46;5.45;;;2.42;;
45688;SDS011;31400;48.132;20.872;2024-02-14T14:47:38;6.35;;;2.83;;
45688;SDS011;31400;48.132;20.872;2024-02-14T14:52:32;2.95;;;1.67;;
45688;SDS011;31400;48.132;20.872;2024-02-14T14:54:58;7.85;;;2.08;;
45688;SDS011;31400;48.132;20.872;2024-02-14T14:59:50;3.20;;;1.90;;
45688;SDS011;31400;48.132;20.872;2024-02-14T15:02:18;4.88;;;2.20;;
45688;SDS011;31400;48.132;20.872;2024-02-14T15:04:44;7.30;;;2.72;;
45688;SDS011;31400;48.132;20.872;2024-02-14T15:07:12;3.35;;;2.22;;
45688;SDS011;31400;48.132;20.872;2024-02-14T15:09:38;4.90;;;2.17;;
45688;SDS011;31400;48.132;20.872;2024-02-14T15:14:30;3.65;;;2.05;;
45688;SDS011;31400;48.132;20.872;2024-02-14T15:19:22;10.20;;;3.00;;
45688;SDS011;31400;48.132;20.872;2024-02-14T15:21:49;9.57;;;2.60;;
45688;SDS011;31400;48.132;20.872;2024-02-14T15:24:16;4.90;;;2.28;;
45688;SDS011;31400;48.132;20.872;2024-02-14T15:26:42;3.83;;;2.03;;
45688;SDS011;31400;48.132;20.872;2024-02-14T15:29:24;6.22;;;2.95;;
45688;SDS011;31400;48.132;20.872;2024-02-14T15:32:09;7.15;;;3.38;;
45688;SDS011;31400;48.132;20.872;2024-02-14T15:34:53;8.10;;;3.88;;